sensor_id;sensor_type;location;lat;lon;timestamp;pressure;altitude;pressure_sealevel;temperature;humidity
3812;BME280;1921;49.368;11.068;2023-06-14T00:01:01;97289.66;;;16.09;52.31
3812;BME280;1921;49.368;11.068;2023-06-14T00:03:29;97280.22;;;16.01;52.36
3812;BME280;1921;49.368;11.068;2023-06-14T00:05:55;97264.34;;;15.89;52.24
3812;BME280;1921;49.368;11.068;2023-06-14T00:08:20;97246.16;;;15.70;51.93
3812;BME280;1921;49.368;11.068;2023-06-14T00:10:49;97263.47;;;15.77;52.10
3812;BME280;1921;49.368;11.068;2023-06-14T00:13:14;97270.50;;;15.83;52.81
3812;BME280;1921;49.368;11.068;2023-06-14T00:15:40;97285.53;;;15.95;52.69
3812;BME280;1921;49.368;11.068;2023-06-14T00:18:06;97311.56;;;16.21;52.71
3812;BME280;1921;49.368;11.068;2023-06-14T00:20:33;97254.94;;;15.82;53.19
3812;BME280;1921;49.368;11.068;2023-06-14T00:23:00;97284.09;;;15.99;53.06
3812;BME280;1921;49.368;11.068;2023-06-14T00:25:26;97275.47;;;15.92;53.28
3812;BME280;1921;49.368;11.068;2023-06-14T00:27:53;97304.41;;;16.10;53.61
3812;BME280;1921;49.368;11.068;2023-06-14T00:30:19;97263.19;;;15.85;54.10
3812;BME280;1921;49.368;11.068;2023-06-14T00:32:45;97307.19;;;16.15;53.59
3812;BME280;1921;49.368;11.068;2023-06-14T00:35:12;97304.47;;;16.22;53.12
3812;BME280;1921;49.368;11.068;2023-06-14T00:37:38;97259.31;;;15.88;52.87
3812;BME280;1921;49.368;11.068;2023-06-14T00:40:05;97303.88;;;16.20;52.66
3812;BME280;1921;49.368;11.068;2023-06-14T00:42:31;97253.47;;;15.86;53.15
3812;BME280;1921;49.368;11.068;2023-06-14T00:44:57;97261.72;;;15.89;53.21
3812;BME280;1921;49.368;11.068;2023-06-14T00:47:24;97270.78;;;15.94;53.47
3812;BME280;1921;49.368;11.068;2023-06-14T00:49:51;97281.47;;;15.99;54.00
3812;BME280;1921;49.368;11.068;2023-06-14T00:52:17;97243.69;;;15.75;54.99
3812;BME280;1921;49.368;11.068;2023-06-14T00:54:44;97244.50;;;15.75;54.50
3812;BME280;1921;49.368;11.068;2023-06-14T00:57:10;97264.50;;;15.76;55.34
3812;BME280;1921;49.368;11.068;2023-06-14T00:59:46;97271.66;;;15.69;55.07
3812;BME280;1921;49.368;11.068;2023-06-14T01:02:12;97276.19;;;15.62;55.61
3812;BME280;1921;49.368;11.068;2023-06-14T01:04:39;97283.66;;;15.58;55.93
3812;BME280;1921;49.368;11.068;2023-06-14T01:10:59;97282.22;;;15.38;57.36
3812;BME280;1921;49.368;11.068;2023-06-14T01:13:34;97243.16;;;14.98;59.26
3812;BME280;1921;49.368;11.068;2023-06-14T01:16:02;97251.72;;;14.87;60.81
3812;BME280;1921;49.368;11.068;2023-06-14T01:18:28;97242.00;;;14.62;63.75
3812;BME280;1921;49.368;11.068;2023-06-14T01:20:55;97242.66;;;14.51;63.33
3812;BME280;1921;49.368;11.068;2023-06-14T01:23:23;97235.25;;;14.41;63.42
3812;BME280;1921;49.368;11.068;2023-06-14T01:25:50;97282.13;;;14.69;61.67
3812;BME280;1921;49.368;11.068;2023-06-14T01:28:21;97243.31;;;14.40;60.83
3812;BME280;1921;49.368;11.068;2023-06-14T01:30:52;97290.00;;;14.69;61.51
3812;BME280;1921;49.368;11.068;2023-06-14T01:33:25;97232.84;;;14.33;61.08
3812;BME280;1921;49.368;11.068;2023-06-14T01:35:52;97274.50;;;14.61;61.30
3812;BME280;1921;49.368;11.068;2023-06-14T01:38:24;97308.13;;;14.77;60.98
3812;BME280;1921;49.368;11.068;2023-06-14T01:40:53;97290.66;;;14.58;60.79
3812;BME280;1921;49.368;11.068;2023-06-14T01:43:20;97263.09;;;14.42;60.60
3812;BME280;1921;49.368;11.068;2023-06-14T01:45:47;97299.56;;;14.57;60.71
3812;BME280;1921;49.368;11.068;2023-06-14T01:48:14;97314.47;;;14.63;61.95
3812;BME280;1921;49.368;11.068;2023-06-14T01:50:41;97324.38;;;14.61;61.68
3812;BME280;1921;49.368;11.068;2023-06-14T01:53:10;97293.78;;;14.35;61.94
3812;BME280;1921;49.368;11.068;2023-06-14T01:55:36;97269.06;;;14.11;62.23
3812;BME280;1921;49.368;11.068;2023-06-14T01:58:04;97309.72;;;14.34;62.94
3812;BME280;1921;49.368;11.068;2023-06-14T02:00:30;97255.41;;;13.96;63.38
3812;BME280;1921;49.368;11.068;2023-06-14T02:02:56;97309.38;;;14.23;63.89
3812;BME280;1921;49.368;11.068;2023-06-14T02:05:22;97256.28;;;13.77;64.17
3812;BME280;1921;49.368;11.068;2023-06-14T02:07:47;97296.94;;;13.99;64.14
3812;BME280;1921;49.368;11.068;2023-06-14T02:10:14;97255.91;;;13.66;64.51
3812;BME280;1921;49.368;11.068;2023-06-14T02:12:40;97274.25;;;13.66;65.14
3812;BME280;1921;49.368;11.068;2023-06-14T02:15:07;97327.63;;;13.98;65.28
3812;BME280;1921;49.368;11.068;2023-06-14T02:17:33;97286.34;;;13.67;65.51
3812;BME280;1921;49.368;11.068;2023-06-14T02:20:00;97269.81;;;13.54;65.40
3812;BME280;1921;49.368;11.068;2023-06-14T02:22:26;97274.06;;;13.41;65.51
3812;BME280;1921;49.368;11.068;2023-06-14T02:24:51;97284.75;;;13.46;65.97
3812;BME280;1921;49.368;11.068;2023-06-14T02:27:18;97299.84;;;13.51;65.97
3812;BME280;1921;49.368;11.068;2023-06-14T02:29:44;97256.34;;;13.17;66.13
3812;BME280;1921;49.368;11.068;2023-06-14T02:32:10;97259.94;;;13.16;66.58
3812;BME280;1921;49.368;11.068;2023-06-14T02:34:36;97296.84;;;13.34;66.30
3812;BME280;1921;49.368;11.068;2023-06-14T02:37:02;97270.84;;;13.06;66.58
3812;BME280;1921;49.368;11.068;2023-06-14T02:39:30;97302.25;;;13.19;66.79
3812;BME280;1921;49.368;11.068;2023-06-14T02:41:56;97271.06;;;12.98;67.32
3812;BME280;1921;49.368;11.068;2023-06-14T02:44:26;97303.44;;;13.10;67.92
3812;BME280;1921;49.368;11.068;2023-06-14T02:46:54;97280.50;;;12.92;68.57
3812;BME280;1921;49.368;11.068;2023-06-14T02:49:21;97277.25;;;12.90;68.84
3812;BME280;1921;49.368;11.068;2023-06-14T02:51:47;97314.53;;;12.99;68.72
3812;BME280;1921;49.368;11.068;2023-06-14T02:54:13;97267.78;;;12.70;68.59
3812;BME280;1921;49.368;11.068;2023-06-14T02:56:39;97294.78;;;12.83;68.86
3812;BME280;1921;49.368;11.068;2023-06-14T02:59:05;97333.09;;;13.11;69.81
3812;BME280;1921;49.368;11.068;2023-06-14T03:01:30;97260.53;;;12.65;69.76
3812;BME280;1921;49.368;11.068;2023-06-14T03:04:02;97280.28;;;12.74;69.27
3812;BME280;1921;49.368;11.068;2023-06-14T03:06:29;97287.50;;;12.72;69.80
3812;BME280;1921;49.368;11.068;2023-06-14T03:08:57;97322.19;;;12.94;69.98
3812;BME280;1921;49.368;11.068;2023-06-14T03:11:25;97305.63;;;12.67;70.20
3812;BME280;1921;49.368;11.068;2023-06-14T03:13:52;97304.41;;;12.70;70.66
3812;BME280;1921;49.368;11.068;2023-06-14T03:16:18;97321.13;;;12.69;70.89
3812;BME280;1921;49.368;11.068;2023-06-14T03:18:51;97343.91;;;12.81;70.48
3812;BME280;1921;49.368;11.068;2023-06-14T03:21:20;97334.19;;;12.69;70.60
3812;BME280;1921;49.368;11.068;2023-06-14T03:23:47;97329.56;;;12.71;71.55
3812;BME280;1921;49.368;11.068;2023-06-14T03:26:14;97307.56;;;12.45;74.50
3812;BME280;1921;49.368;11.068;2023-06-14T03:28:44;97320.88;;;12.50;74.24
3812;BME280;1921;49.368;11.068;2023-06-14T03:31:11;97349.09;;;12.68;73.65
3812;BME280;1921;49.368;11.068;2023-06-14T03:33:37;97347.28;;;12.69;73.48
3812;BME280;1921;49.368;11.068;2023-06-14T03:36:03;97337.59;;;12.62;74.23
3812;BME280;1921;49.368;11.068;2023-06-14T03:38:29;97330.16;;;12.73;74.85
3812;BME280;1921;49.368;11.068;2023-06-14T03:40:54;97308.88;;;12.82;74.86
3812;BME280;1921;49.368;11.068;2023-06-14T03:43:20;97307.28;;;13.01;74.21
3812;BME280;1921;49.368;11.068;2023-06-14T03:45:46;97346.81;;;13.46;73.82
3812;BME280;1921;49.368;11.068;2023-06-14T03:48:12;97345.78;;;13.87;72.58
3812;BME280;1921;49.368;11.068;2023-06-14T03:50:38;97328.78;;;14.02;72.04
3812;BME280;1921;49.368;11.068;2023-06-14T03:53:04;97330.09;;;14.38;71.39
3812;BME280;1921;49.368;11.068;2023-06-14T03:55:30;97345.22;;;14.88;69.42
3812;BME280;1921;49.368;11.068;2023-06-14T03:57:59;97335.47;;;15.26;67.59
3812;BME280;1921;49.368;11.068;2023-06-14T04:00:25;97360.66;;;15.91;65.72
3812;BME280;1921;49.368;11.068;2023-06-14T04:02:51;97322.97;;;16.15;62.75
3812;BME280;1921;49.368;11.068;2023-06-14T04:05:17;97363.28;;;16.82;62.05
3812;BME280;1921;49.368;11.068;2023-06-14T04:07:45;97340.34;;;17.13;60.22
3812;BME280;1921;49.368;11.068;2023-06-14T04:10:15;97342.72;;;17.56;57.60
3812;BME280;1921;49.368;11.068;2023-06-14T04:12:42;97366.50;;;18.15;56.68
3812;BME280;1921;49.368;11.068;2023-06-14T04:15:08;97381.09;;;18.69;55.04
3812;BME280;1921;49.368;11.068;2023-06-14T04:17:35;97388.41;;;19.19;53.67
3812;BME280;1921;49.368;11.068;2023-06-14T04:20:02;97373.19;;;19.43;51.39
3812;BME280;1921;49.368;11.068;2023-06-14T04:22:30;97364.88;;;19.68;50.03
3812;BME280;1921;49.368;11.068;2023-06-14T04:24:57;97372.09;;;20.06;49.54
3812;BME280;1921;49.368;11.068;2023-06-14T04:27:26;97358.25;;;20.21;47.53
3812;BME280;1921;49.368;11.068;2023-06-14T04:29:55;97365.34;;;20.37;47.27
3812;BME280;1921;49.368;11.068;2023-06-14T04:32:26;97344.09;;;20.32;45.38
3812;BME280;1921;49.368;11.068;2023-06-14T04:34:56;97365.88;;;20.56;45.14
3812;BME280;1921;49.368;11.068;2023-06-14T04:37:22;97364.06;;;20.62;44.16
3812;BME280;1921;49.368;11.068;2023-06-14T04:39:49;97367.88;;;20.71;43.84
3812;BME280;1921;49.368;11.068;2023-06-14T04:42:16;97364.41;;;20.92;44.24
3812;BME280;1921;49.368;11.068;2023-06-14T04:44:42;97354.50;;;21.10;43.97
3812;BME280;1921;49.368;11.068;2023-06-14T04:47:12;97348.00;;;21.49;43.06
3812;BME280;1921;49.368;11.068;2023-06-14T04:49:38;97358.22;;;21.68;41.58
3812;BME280;1921;49.368;11.068;2023-06-14T04:52:06;97361.53;;;21.53;41.97
3812;BME280;1921;49.368;11.068;2023-06-14T04:54:31;97387.22;;;22.12;41.82
3812;BME280;1921;49.368;11.068;2023-06-14T04:56:59;97358.19;;;20.38;43.31
3812;BME280;1921;49.368;11.068;2023-06-14T04:59:25;97345.13;;;18.80;46.85
3812;BME280;1921;49.368;11.068;2023-06-14T05:01:51;97270.97;;;17.66;49.02
3812;BME280;1921;49.368;11.068;2023-06-14T05:04:18;97372.66;;;18.96;48.07
3812;BME280;1921;49.368;11.068;2023-06-14T05:06:44;97351.72;;;18.94;47.62
3812;BME280;1921;49.368;11.068;2023-06-14T05:09:12;97384.94;;;18.38;48.24
3812;BME280;1921;49.368;11.068;2023-06-14T05:11:37;97357.56;;;18.16;49.06
3812;BME280;1921;49.368;11.068;2023-06-14T05:14:03;97367.34;;;17.38;50.97
3812;BME280;1921;49.368;11.068;2023-06-14T05:16:29;97378.09;;;16.28;55.71
3812;BME280;1921;49.368;11.068;2023-06-14T05:18:55;97344.28;;;16.62;54.63
3812;BME280;1921;49.368;11.068;2023-06-14T05:21:21;97402.91;;;17.47;53.09
3812;BME280;1921;49.368;11.068;2023-06-14T05:23:47;97418.94;;;17.34;53.84
3812;BME280;1921;49.368;11.068;2023-06-14T05:26:13;97370.44;;;17.35;53.54
3812;BME280;1921;49.368;11.068;2023-06-14T05:28:38;97368.41;;;18.31;50.79
3812;BME280;1921;49.368;11.068;2023-06-14T05:31:04;97403.38;;;18.62;50.46
3812;BME280;1921;49.368;11.068;2023-06-14T05:33:30;97376.94;;;17.33;54.20
3812;BME280;1921;49.368;11.068;2023-06-14T05:35:55;97390.81;;;17.82;52.73
3812;BME280;1921;49.368;11.068;2023-06-14T05:38:21;97401.13;;;18.53;52.13
3812;BME280;1921;49.368;11.068;2023-06-14T05:40:47;97394.53;;;16.42;56.66
3812;BME280;1921;49.368;11.068;2023-06-14T05:43:13;97378.84;;;17.14;54.76
3812;BME280;1921;49.368;11.068;2023-06-14T05:45:39;97389.91;;;17.88;52.71
3812;BME280;1921;49.368;11.068;2023-06-14T05:48:05;97394.59;;;17.74;53.44
3812;BME280;1921;49.368;11.068;2023-06-14T05:50:30;97424.91;;;18.18;52.63
3812;BME280;1921;49.368;11.068;2023-06-14T05:52:56;97398.78;;;17.10;54.92
3812;BME280;1921;49.368;11.068;2023-06-14T05:55:22;97390.50;;;17.36;54.56
3812;BME280;1921;49.368;11.068;2023-06-14T05:57:49;97404.06;;;17.63;53.93
3812;BME280;1921;49.368;11.068;2023-06-14T06:00:15;97340.69;;;17.93;52.35
3812;BME280;1921;49.368;11.068;2023-06-14T06:02:42;97401.53;;;18.74;50.42
3812;BME280;1921;49.368;11.068;2023-06-14T06:05:09;97403.16;;;17.69;52.92
3812;BME280;1921;49.368;11.068;2023-06-14T06:07:36;97391.47;;;18.59;52.00
3812;BME280;1921;49.368;11.068;2023-06-14T06:10:03;97407.34;;;20.12;48.65
3812;BME280;1921;49.368;11.068;2023-06-14T06:12:29;97379.03;;;18.60;50.52
3812;BME280;1921;49.368;11.068;2023-06-14T06:14:55;97435.06;;;18.62;51.79
3812;BME280;1921;49.368;11.068;2023-06-14T06:17:21;97429.72;;;19.54;50.14
3812;BME280;1921;49.368;11.068;2023-06-14T06:19:46;97390.00;;;19.20;50.59
3812;BME280;1921;49.368;11.068;2023-06-14T06:22:12;97423.38;;;18.69;51.85
3812;BME280;1921;49.368;11.068;2023-06-14T06:24:38;97435.69;;;19.04;50.68
3812;BME280;1921;49.368;11.068;2023-06-14T06:27:04;97391.50;;;18.24;51.49
3812;BME280;1921;49.368;11.068;2023-06-14T06:29:30;97373.69;;;19.40;49.04
3812;BME280;1921;49.368;11.068;2023-06-14T06:31:55;97401.78;;;18.72;49.71
3812;BME280;1921;49.368;11.068;2023-06-14T06:34:22;97440.91;;;18.87;50.75
3812;BME280;1921;49.368;11.068;2023-06-14T06:36:47;97423.97;;;18.48;51.92
3812;BME280;1921;49.368;11.068;2023-06-14T06:39:13;97451.72;;;18.86;51.31
3812;BME280;1921;49.368;11.068;2023-06-14T06:41:40;97455.19;;;17.92;53.96
3812;BME280;1921;49.368;11.068;2023-06-14T06:44:07;97408.41;;;18.63;51.25
3812;BME280;1921;49.368;11.068;2023-06-14T06:46:33;97438.09;;;19.34;50.58
3812;BME280;1921;49.368;11.068;2023-06-14T06:49:00;97409.63;;;20.81;47.08
3812;BME280;1921;49.368;11.068;2023-06-14T06:51:26;97457.31;;;22.11;43.20
3812;BME280;1921;49.368;11.068;2023-06-14T06:53:53;97434.41;;;21.40;43.62
3812;BME280;1921;49.368;11.068;2023-06-14T06:56:20;97415.19;;;21.87;43.31
3812;BME280;1921;49.368;11.068;2023-06-14T06:58:49;97470.75;;;21.18;44.98
3812;BME280;1921;49.368;11.068;2023-06-14T07:01:15;97429.59;;;19.60;48.07
3812;BME280;1921;49.368;11.068;2023-06-14T07:03:41;97418.53;;;19.06;50.20
3812;BME280;1921;49.368;11.068;2023-06-14T07:06:07;97430.72;;;19.36;50.08
3812;BME280;1921;49.368;11.068;2023-06-14T07:08:33;97297.53;;;19.42;48.41
3812;BME280;1921;49.368;11.068;2023-06-14T07:10:58;97478.34;;;20.65;47.37
3812;BME280;1921;49.368;11.068;2023-06-14T07:13:24;97375.13;;;21.57;44.18
3812;BME280;1921;49.368;11.068;2023-06-14T07:15:53;97428.66;;;22.60;41.42
3812;BME280;1921;49.368;11.068;2023-06-14T07:18:20;97421.19;;;22.52;41.48
3812;BME280;1921;49.368;11.068;2023-06-14T07:20:46;97455.88;;;21.39;44.65
3812;BME280;1921;49.368;11.068;2023-06-14T07:23:13;97435.72;;;22.92;41.63
3812;BME280;1921;49.368;11.068;2023-06-14T07:25:38;97456.13;;;22.28;41.63
3812;BME280;1921;49.368;11.068;2023-06-14T07:28:04;97399.25;;;20.57;44.23
3812;BME280;1921;49.368;11.068;2023-06-14T07:30:30;97450.19;;;20.81;44.19
3812;BME280;1921;49.368;11.068;2023-06-14T07:32:56;97447.34;;;20.88;44.01
3812;BME280;1921;49.368;11.068;2023-06-14T07:35:22;97435.28;;;20.20;45.24
3812;BME280;1921;49.368;11.068;2023-06-14T07:37:49;97439.44;;;20.32;45.92
3812;BME280;1921;49.368;11.068;2023-06-14T07:40:15;97454.88;;;21.45;43.30
3812;BME280;1921;49.368;11.068;2023-06-14T07:42:41;97426.75;;;20.51;44.69
3812;BME280;1921;49.368;11.068;2023-06-14T07:45:07;97441.66;;;22.09;41.17
3812;BME280;1921;49.368;11.068;2023-06-14T07:47:34;97473.75;;;23.70;38.40
3812;BME280;1921;49.368;11.068;2023-06-14T07:50:00;97452.06;;;24.74;36.12
3812;BME280;1921;49.368;11.068;2023-06-14T07:52:26;97446.66;;;22.06;40.24
3812;BME280;1921;49.368;11.068;2023-06-14T07:54:52;97400.81;;;21.51;41.88
3812;BME280;1921;49.368;11.068;2023-06-14T07:57:18;97446.81;;;22.73;40.66
3812;BME280;1921;49.368;11.068;2023-06-14T07:59:46;97434.84;;;22.76;39.39
3812;BME280;1921;49.368;11.068;2023-06-14T08:02:11;97439.75;;;20.96;43.04
3812;BME280;1921;49.368;11.068;2023-06-14T08:04:37;97410.19;;;20.44;44.67
3812;BME280;1921;49.368;11.068;2023-06-14T08:07:03;97451.03;;;22.22;41.18
3812;BME280;1921;49.368;11.068;2023-06-14T08:09:29;97439.41;;;22.33;39.07
3812;BME280;1921;49.368;11.068;2023-06-14T08:11:55;97464.72;;;21.76;40.76
3812;BME280;1921;49.368;11.068;2023-06-14T08:14:22;97437.50;;;21.59;40.69
3812;BME280;1921;49.368;11.068;2023-06-14T08:16:48;97473.09;;;22.70;39.27
3812;BME280;1921;49.368;11.068;2023-06-14T08:19:14;97451.09;;;22.79;38.22
3812;BME280;1921;49.368;11.068;2023-06-14T08:21:42;97441.13;;;23.22;37.82
3812;BME280;1921;49.368;11.068;2023-06-14T08:24:11;97442.19;;;23.16;37.05
3812;BME280;1921;49.368;11.068;2023-06-14T08:26:38;97443.38;;;24.07;35.80
3812;BME280;1921;49.368;11.068;2023-06-14T08:29:05;97421.50;;;23.38;37.00
3812;BME280;1921;49.368;11.068;2023-06-14T08:31:33;97463.91;;;21.44;38.76
3812;BME280;1921;49.368;11.068;2023-06-14T08:33:58;97481.28;;;22.58;36.74
3812;BME280;1921;49.368;11.068;2023-06-14T08:36:24;97464.66;;;24.27;34.04
3812;BME280;1921;49.368;11.068;2023-06-14T08:38:50;97450.78;;;25.65;31.29
3812;BME280;1921;49.368;11.068;2023-06-14T08:41:21;97422.75;;;24.68;33.12
3812;BME280;1921;49.368;11.068;2023-06-14T08:43:51;97448.56;;;23.15;36.38
3812;BME280;1921;49.368;11.068;2023-06-14T08:46:18;97474.00;;;22.38;36.67
3812;BME280;1921;49.368;11.068;2023-06-14T08:48:52;97440.44;;;21.31;39.07
3812;BME280;1921;49.368;11.068;2023-06-14T08:51:19;97459.09;;;22.37;39.06
3812;BME280;1921;49.368;11.068;2023-06-14T08:53:45;97459.78;;;22.22;38.90
3812;BME280;1921;49.368;11.068;2023-06-14T08:56:12;97492.91;;;22.89;37.49
3812;BME280;1921;49.368;11.068;2023-06-14T08:58:45;97443.91;;;23.78;35.14
3812;BME280;1921;49.368;11.068;2023-06-14T09:01:13;97431.91;;;24.37;34.62
3812;BME280;1921;49.368;11.068;2023-06-14T09:03:43;97448.50;;;22.95;37.29
3812;BME280;1921;49.368;11.068;2023-06-14T09:06:10;97482.28;;;24.23;36.46
3812;BME280;1921;49.368;11.068;2023-06-14T09:08:43;97455.75;;;23.15;38.58
3812;BME280;1921;49.368;11.068;2023-06-14T09:11:13;97462.56;;;21.73;41.00
3812;BME280;1921;49.368;11.068;2023-06-14T09:13:40;97474.09;;;22.11;40.74
3812;BME280;1921;49.368;11.068;2023-06-14T09:16:07;97461.13;;;23.30;37.48
3812;BME280;1921;49.368;11.068;2023-06-14T09:18:43;97440.75;;;22.36;38.99
3812;BME280;1921;49.368;11.068;2023-06-14T09:21:11;97478.59;;;22.16;40.80
3812;BME280;1921;49.368;11.068;2023-06-14T09:23:39;97460.91;;;22.74;38.96
3812;BME280;1921;49.368;11.068;2023-06-14T09:26:17;97450.03;;;21.37;40.68
3812;BME280;1921;49.368;11.068;2023-06-14T09:28:50;97447.94;;;20.51;43.66
3812;BME280;1921;49.368;11.068;2023-06-14T09:31:20;97481.25;;;20.30;43.87
3812;BME280;1921;49.368;11.068;2023-06-14T09:33:49;97464.06;;;20.33;44.16
3812;BME280;1921;49.368;11.068;2023-06-14T09:36:23;97476.34;;;20.56;42.41
3812;BME280;1921;49.368;11.068;2023-06-14T09:39:01;97456.13;;;20.50;43.48
3812;BME280;1921;49.368;11.068;2023-06-14T09:41:37;97505.59;;;21.05;43.40
3812;BME280;1921;49.368;11.068;2023-06-14T09:44:08;97477.53;;;20.65;42.51
3812;BME280;1921;49.368;11.068;2023-06-14T09:46:34;97457.03;;;20.22;42.95
3812;BME280;1921;49.368;11.068;2023-06-14T09:49:02;97517.59;;;20.68;43.03
3812;BME280;1921;49.368;11.068;2023-06-14T09:51:28;97455.59;;;20.91;42.59
3812;BME280;1921;49.368;11.068;2023-06-14T09:54:07;97512.47;;;21.71;41.13
3812;BME280;1921;49.368;11.068;2023-06-14T09:56:38;97461.81;;;22.10;38.48
3812;BME280;1921;49.368;11.068;2023-06-14T09:59:08;97495.63;;;21.61;40.03
3812;BME280;1921;49.368;11.068;2023-06-14T10:01:38;97501.72;;;21.61;40.35
3812;BME280;1921;49.368;11.068;2023-06-14T10:04:07;97487.28;;;22.38;38.47
3812;BME280;1921;49.368;11.068;2023-06-14T10:06:39;97477.47;;;22.91;35.95
3812;BME280;1921;49.368;11.068;2023-06-14T10:09:08;97406.09;;;21.83;37.53
3812;BME280;1921;49.368;11.068;2023-06-14T10:11:36;97465.88;;;22.60;37.57
3812;BME280;1921;49.368;11.068;2023-06-14T10:14:05;97471.47;;;22.64;36.78
3812;BME280;1921;49.368;11.068;2023-06-14T10:19:48;97519.13;;;22.01;37.38
3812;BME280;1921;49.368;11.068;2023-06-14T10:22:23;97480.81;;;22.71;35.74
3812;BME280;1921;49.368;11.068;2023-06-14T10:24:53;97452.75;;;22.91;34.75
3812;BME280;1921;49.368;11.068;2023-06-14T10:27:18;97481.16;;;23.58;33.30
3812;BME280;1921;49.368;11.068;2023-06-14T10:32:24;97499.34;;;23.86;35.21
3812;BME280;1921;49.368;11.068;2023-06-14T10:37:24;97498.56;;;21.15;40.12
3812;BME280;1921;49.368;11.068;2023-06-14T10:39:50;97441.44;;;21.30;39.65
3812;BME280;1921;49.368;11.068;2023-06-14T10:42:16;97502.72;;;21.55;39.67
3812;BME280;1921;49.368;11.068;2023-06-14T10:44:49;97517.50;;;22.00;39.78
3812;BME280;1921;49.368;11.068;2023-06-14T10:47:34;97460.66;;;21.37;40.32
3812;BME280;1921;49.368;11.068;2023-06-14T10:50:08;97466.81;;;21.20;40.27
3812;BME280;1921;49.368;11.068;2023-06-14T10:52:40;97501.53;;;21.41;39.78
3812;BME280;1921;49.368;11.068;2023-06-14T10:55:13;97516.56;;;21.57;40.39
3812;BME280;1921;49.368;11.068;2023-06-14T10:57:53;97483.03;;;21.46;39.47
3812;BME280;1921;49.368;11.068;2023-06-14T11:00:25;97508.88;;;21.34;40.75
3812;BME280;1921;49.368;11.068;2023-06-14T11:05:59;97492.19;;;21.92;38.94
3812;BME280;1921;49.368;11.068;2023-06-14T11:09:01;97513.66;;;21.86;38.44
3812;BME280;1921;49.368;11.068;2023-06-14T11:11:33;97488.03;;;22.01;37.91
3812;BME280;1921;49.368;11.068;2023-06-14T11:14:00;97506.88;;;22.00;38.70
3812;BME280;1921;49.368;11.068;2023-06-14T11:16:28;97487.03;;;22.08;38.07
3812;BME280;1921;49.368;11.068;2023-06-14T11:18:54;97468.66;;;22.01;37.95
3812;BME280;1921;49.368;11.068;2023-06-14T11:21:20;97457.97;;;21.96;36.49
3812;BME280;1921;49.368;11.068;2023-06-14T11:23:52;97470.63;;;21.84;37.43
3812;BME280;1921;49.368;11.068;2023-06-14T11:26:31;97456.53;;;21.51;36.93
3812;BME280;1921;49.368;11.068;2023-06-14T11:29:00;97475.84;;;21.46;37.80
3812;BME280;1921;49.368;11.068;2023-06-14T11:31:29;97441.63;;;21.23;37.81
3812;BME280;1921;49.368;11.068;2023-06-14T11:33:57;97446.00;;;22.25;37.35
3812;BME280;1921;49.368;11.068;2023-06-14T11:36:26;97479.25;;;23.53;34.71
3812;BME280;1921;49.368;11.068;2023-06-14T11:39:02;97446.84;;;23.77;34.20
3812;BME280;1921;49.368;11.068;2023-06-14T11:41:44;97453.22;;;24.01;32.47
3812;BME280;1921;49.368;11.068;2023-06-14T11:44:11;97466.78;;;24.56;32.92
3812;BME280;1921;49.368;11.068;2023-06-14T11:46:37;97451.59;;;23.54;33.87
3812;BME280;1921;49.368;11.068;2023-06-14T11:49:04;97460.44;;;23.96;33.95
3812;BME280;1921;49.368;11.068;2023-06-14T11:51:33;97455.53;;;24.69;32.42
3812;BME280;1921;49.368;11.068;2023-06-14T11:54:02;97462.00;;;25.67;31.45
3812;BME280;1921;49.368;11.068;2023-06-14T11:56:29;97464.03;;;24.81;32.03
3812;BME280;1921;49.368;11.068;2023-06-14T11:58:55;97448.69;;;25.22;32.38
3812;BME280;1921;49.368;11.068;2023-06-14T12:01:22;97447.22;;;25.85;31.59
3812;BME280;1921;49.368;11.068;2023-06-14T12:03:54;97434.84;;;26.23;30.64
3812;BME280;1921;49.368;11.068;2023-06-14T12:06:28;97430.47;;;26.61;30.64
3812;BME280;1921;49.368;11.068;2023-06-14T12:08:57;97452.41;;;26.82;30.37
3812;BME280;1921;49.368;11.068;2023-06-14T12:11:23;97455.72;;;27.41;29.59
3812;BME280;1921;49.368;11.068;2023-06-14T12:13:49;97446.28;;;27.81;28.94
3812;BME280;1921;49.368;11.068;2023-06-14T12:16:15;97433.16;;;28.12;27.31
3812;BME280;1921;49.368;11.068;2023-06-14T12:18:41;97442.69;;;28.64;27.01
3812;BME280;1921;49.368;11.068;2023-06-14T12:21:09;97444.38;;;29.15;25.88
3812;BME280;1921;49.368;11.068;2023-06-14T12:23:46;97432.91;;;27.43;27.88
3812;BME280;1921;49.368;11.068;2023-06-14T12:26:18;97429.16;;;26.29;29.05
3812;BME280;1921;49.368;11.068;2023-06-14T12:28:45;97418.91;;;23.79;31.95
3812;BME280;1921;49.368;11.068;2023-06-14T12:31:13;97406.03;;;23.25;32.73
3812;BME280;1921;49.368;11.068;2023-06-14T12:33:40;97427.78;;;24.70;30.52
3812;BME280;1921;49.368;11.068;2023-06-14T12:36:10;97446.56;;;26.80;28.08
3812;BME280;1921;49.368;11.068;2023-06-14T12:38:37;97470.00;;;28.39;25.70
3812;BME280;1921;49.368;11.068;2023-06-14T12:41:03;97443.88;;;28.72;25.41
3812;BME280;1921;49.368;11.068;2023-06-14T12:43:29;97418.91;;;28.99;25.23
3812;BME280;1921;49.368;11.068;2023-06-14T12:45:55;97468.19;;;29.44;25.71
3812;BME280;1921;49.368;11.068;2023-06-14T12:48:21;97453.72;;;28.90;25.96
3812;BME280;1921;49.368;11.068;2023-06-14T12:50:47;97440.09;;;27.05;27.74
3812;BME280;1921;49.368;11.068;2023-06-14T12:53:13;97465.63;;;28.43;26.32
3812;BME280;1921;49.368;11.068;2023-06-14T12:55:40;97447.75;;;27.17;27.38
3812;BME280;1921;49.368;11.068;2023-06-14T12:58:06;97411.19;;;25.77;28.61
3812;BME280;1921;49.368;11.068;2023-06-14T13:00:31;97445.44;;;25.65;29.59
3812;BME280;1921;49.368;11.068;2023-06-14T13:02:57;97460.41;;;27.11;28.34
3812;BME280;1921;49.368;11.068;2023-06-14T13:05:24;97443.28;;;28.61;27.15
3812;BME280;1921;49.368;11.068;2023-06-14T13:07:50;97464.09;;;29.47;26.02
3812;BME280;1921;49.368;11.068;2023-06-14T13:10:17;97456.94;;;30.01;24.36
3812;BME280;1921;49.368;11.068;2023-06-14T13:12:43;97441.34;;;30.43;23.74
3812;BME280;1921;49.368;11.068;2023-06-14T13:15:09;97443.25;;;29.66;25.24
3812;BME280;1921;49.368;11.068;2023-06-14T13:17:36;97429.81;;;25.53;29.92
3812;BME280;1921;49.368;11.068;2023-06-14T13:20:06;97441.16;;;25.30;30.88
3812;BME280;1921;49.368;11.068;2023-06-14T13:22:33;97472.63;;;25.77;29.92
3812;BME280;1921;49.368;11.068;2023-06-14T13:24:58;97480.63;;;26.45;29.07
3812;BME280;1921;49.368;11.068;2023-06-14T13:27:25;97429.31;;;26.43;29.17